createdAt,value
2023-04-05T00:04:35.591Z,1.87
2023-04-05T00:09:37.786Z,1.30
2023-04-05T00:14:41.647Z,1.33
2023-04-05T00:19:43.920Z,1.40
2023-04-05T00:24:46.378Z,1.10
2023-04-05T00:29:49.830Z,1.43
2023-04-05T00:34:51.803Z,0.80
2023-04-05T00:39:54.016Z,1.47
2023-04-05T00:45:00.652Z,1.53
2023-04-05T00:50:03.257Z,1.47
2023-04-05T00:55:07.539Z,1.30
2023-04-05T01:00:12.223Z,1.50
2023-04-05T01:05:22.408Z,1.67
2023-04-05T01:10:31.348Z,1.57
2023-04-05T01:15:35.054Z,1.50
2023-04-05T01:20:46.135Z,1.63
2023-04-05T01:26:04.657Z,1.33
2023-04-05T01:31:12.982Z,1.40
2023-04-05T01:36:20.917Z,1.57
2023-04-05T01:41:23.725Z,1.27
2023-04-05T01:46:27.502Z,1.27
2023-04-05T01:51:30.779Z,1.90
2023-04-05T01:56:34.211Z,1.73
2023-04-05T02:01:37.567Z,2.10
2023-04-05T02:06:41.048Z,1.47
2023-04-05T02:11:42.880Z,1.63
2023-04-05T02:16:46.479Z,1.60
2023-04-05T02:21:48.453Z,1.77
2023-04-05T02:26:50.194Z,1.20
2023-04-05T02:31:53.731Z,1.80
2023-04-05T02:36:55.947Z,1.93
2023-04-05T02:41:58.083Z,1.73
2023-04-05T02:47:01.545Z,1.60
2023-04-05T02:52:03.742Z,1.50
2023-04-05T02:57:05.738Z,1.40
2023-04-05T03:02:09.321Z,1.50
2023-04-05T03:07:11.401Z,2.17
2023-04-05T03:12:14.232Z,2.00
2023-04-05T03:17:17.397Z,1.70
2023-04-05T03:22:19.139Z,1.50
2023-04-05T03:27:21.396Z,1.30
2023-04-05T03:32:24.897Z,1.50
2023-04-05T03:37:26.858Z,1.70
2023-04-05T03:42:28.950Z,2.00
2023-04-05T03:47:32.667Z,1.17
2023-04-05T03:52:34.513Z,2.23
2023-04-05T03:57:37.981Z,1.43
2023-04-05T04:02:42.955Z,1.70
2023-04-05T04:07:45.643Z,1.50
2023-04-05T04:12:48.148Z,1.70
2023-04-05T04:17:51.229Z,2.13
2023-04-05T04:22:53.432Z,1.30
2023-04-05T04:27:57.529Z,1.67
2023-04-05T04:33:02.489Z,1.80
2023-04-05T04:38:05.676Z,1.40
2023-04-05T04:43:08.871Z,1.87
2023-04-05T04:48:12.834Z,2.23
2023-04-05T04:53:15.067Z,1.80
2023-04-05T04:58:17.814Z,1.80
2023-04-05T05:03:21.269Z,2.30
2023-04-05T05:08:23.372Z,2.13
2023-04-05T05:13:26.243Z,1.80
2023-04-05T05:18:29.858Z,2.07
2023-04-05T05:23:31.855Z,1.90
2023-04-05T05:28:34.122Z,2.63
2023-04-05T05:33:37.679Z,2.73
2023-04-05T05:38:39.876Z,2.53
2023-04-05T05:43:41.949Z,2.23
2023-04-05T05:48:45.974Z,2.10
2023-04-05T05:53:48.382Z,1.90
2023-04-05T05:58:50.678Z,2.20
2023-04-05T06:03:54.696Z,1.77
2023-04-05T06:08:59.810Z,1.97
2023-04-05T06:14:03.493Z,2.23
2023-04-05T06:19:06.971Z,2.50
2023-04-05T06:24:09.113Z,2.20
2023-04-05T06:29:11.200Z,2.10
2023-04-05T06:34:14.308Z,1.73
2023-04-05T06:39:16.534Z,2.23
2023-04-05T06:44:18.630Z,1.70
2023-04-05T06:49:22.166Z,2.33
2023-04-05T06:54:24.315Z,2.60
2023-04-05T06:59:28.760Z,2.43
2023-04-05T07:04:31.936Z,1.63
2023-04-05T07:09:33.674Z,1.47
2023-04-05T07:14:37.510Z,1.80
2023-04-05T07:19:41.202Z,1.73
2023-04-05T07:24:45.538Z,2.40
2023-04-05T07:29:48.226Z,1.73
2023-04-05T07:34:55.501Z,1.90
2023-04-05T07:39:57.908Z,2.23
2023-04-05T07:44:59.883Z,2.03
2023-04-05T07:50:04.076Z,1.80
2023-04-05T07:55:07.715Z,2.57
2023-04-05T08:00:10.803Z,2.50
2023-04-05T08:05:14.364Z,2.20
2023-04-05T08:10:16.391Z,2.90
2023-04-05T08:15:18.266Z,3.47
2023-04-05T08:20:21.704Z,3.40
2023-04-05T08:25:23.490Z,3.00
2023-04-05T08:30:25.797Z,2.90
2023-04-05T08:35:29.066Z,1.80
2023-04-05T08:40:36.934Z,2.00
2023-04-05T08:45:49.842Z,1.60
2023-04-05T08:50:55.183Z,1.70
2023-04-05T08:56:02.593Z,1.90
2023-04-05T09:01:06.891Z,2.27
2023-04-05T09:06:12.752Z,1.90
2023-04-05T09:11:16.584Z,1.83
2023-04-05T09:16:20.212Z,2.10
2023-04-05T09:21:23.972Z,1.60
2023-04-05T09:26:26.428Z,2.13
2023-04-05T09:31:36.103Z,1.50
2023-04-05T09:36:43.968Z,1.77
2023-04-05T09:42:05.402Z,1.80
2023-04-05T09:47:16.245Z,1.50
2023-04-05T09:52:24.708Z,1.77
2023-04-05T09:57:28.232Z,1.80
2023-04-05T10:02:36.551Z,1.80
2023-04-05T10:07:40.165Z,1.70
2023-04-05T10:12:42.229Z,2.00
2023-04-05T10:17:48.780Z,1.70
2023-04-05T10:23:00.366Z,1.93
2023-04-05T10:28:05.405Z,2.00
2023-04-05T10:33:13.956Z,1.40
2023-04-05T10:38:23.046Z,1.70
2023-04-05T10:43:26.458Z,1.93
2023-04-05T10:48:37.571Z,1.63
2023-04-05T10:53:41.655Z,1.67
2023-04-05T10:58:45.085Z,1.40
2023-04-05T11:03:52.118Z,1.70
2023-04-05T11:08:57.746Z,1.90
2023-04-05T11:14:00.004Z,1.80
2023-04-05T11:19:02.073Z,2.40
2023-04-05T11:24:07.245Z,1.67
2023-04-05T11:29:09.919Z,1.73
2023-04-05T11:34:11.928Z,1.47
2023-04-05T11:39:25.711Z,1.23
2023-04-05T11:44:28.709Z,1.30
2023-04-05T11:49:30.513Z,1.77
2023-04-05T11:54:34.852Z,2.00
2023-04-05T11:59:43.130Z,1.60
2023-04-05T12:04:45.278Z,1.70
2023-04-05T12:10:04.142Z,1.90
2023-04-05T12:15:08.645Z,1.30
2023-04-05T12:20:11.722Z,1.57
2023-04-05T12:25:16.617Z,1.70
2023-04-05T12:30:20.493Z,2.20
2023-04-05T12:35:24.051Z,1.50
2023-04-05T12:40:28.276Z,1.97
2023-04-05T12:45:30.655Z,2.10
2023-04-05T12:50:32.710Z,1.77
2023-04-05T12:55:43.210Z,1.87
2023-04-05T13:00:46.083Z,1.50
2023-04-05T13:05:48.723Z,1.93
2023-04-05T13:10:52.259Z,1.60
2023-04-05T13:15:54.457Z,1.33
2023-04-05T13:20:58.802Z,1.50
2023-04-05T13:26:02.744Z,1.50
2023-04-05T13:31:04.796Z,1.67
2023-04-05T13:36:07.979Z,2.00
2023-04-05T13:41:11.501Z,1.80
2023-04-05T13:46:13.242Z,1.80
2023-04-05T13:51:15.020Z,1.30
2023-04-05T13:56:18.995Z,1.10
2023-04-05T14:01:21.182Z,1.30
2023-04-05T14:06:23.850Z,1.70
2023-04-05T14:11:28.354Z,1.80
2023-04-05T14:16:30.803Z,1.40
2023-04-05T14:21:33.119Z,1.70
2023-04-05T14:26:36.700Z,1.30
2023-04-05T14:31:39.092Z,1.27
2023-04-05T14:36:41.453Z,1.63
2023-04-05T14:41:44.923Z,1.57
2023-04-05T14:46:48.248Z,1.70
2023-04-05T14:51:51.884Z,1.40
2023-04-05T14:56:55.799Z,1.20
2023-04-05T15:01:58.192Z,1.40
2023-04-05T15:07:00.325Z,1.60
2023-04-05T15:12:04.711Z,1.83
2023-04-05T15:17:06.806Z,1.67
2023-04-05T15:22:09.690Z,1.77
2023-04-05T15:27:13.836Z,2.03
2023-04-05T15:32:16.713Z,1.57
2023-04-05T15:37:19.103Z,1.87
2023-04-05T15:42:22.303Z,2.10
2023-04-05T15:47:24.512Z,2.00
2023-04-05T15:52:26.585Z,1.63
2023-04-05T15:57:30.252Z,1.67
2023-04-05T16:02:36.740Z,1.50
2023-04-05T16:07:38.607Z,2.07
2023-04-05T16:12:41.903Z,1.97
2023-04-05T16:17:44.501Z,1.47
2023-04-05T16:22:47.061Z,1.33
2023-04-05T16:27:50.433Z,1.77
2023-04-05T16:32:52.991Z,1.27
2023-04-05T16:37:55.707Z,1.57
2023-04-05T16:42:59.177Z,1.47
2023-04-05T16:48:04.376Z,1.00
2023-04-05T16:53:06.505Z,1.60
2023-04-05T16:58:10.305Z,1.40
2023-04-05T17:03:12.217Z,0.73
2023-04-05T17:08:14.420Z,1.10
2023-04-05T17:13:20.309Z,1.47
2023-04-05T17:18:22.271Z,1.40
2023-04-05T17:23:25.838Z,1.77
2023-04-05T17:28:29.500Z,1.67
2023-04-05T17:33:32.120Z,1.77
2023-04-05T17:38:34.571Z,1.80
2023-04-05T17:43:37.960Z,1.57
2023-04-05T17:48:40.379Z,1.30
2023-04-05T17:53:42.618Z,1.63
2023-04-05T17:58:46.515Z,1.70
2023-04-05T18:03:48.534Z,1.60
2023-04-05T18:08:50.403Z,1.47
2023-04-05T18:13:54.102Z,1.30
2023-04-05T18:18:58.546Z,1.43
2023-04-05T18:24:00.573Z,1.40
2023-04-05T18:29:04.063Z,1.53
2023-04-05T18:34:06.440Z,1.30
2023-04-05T18:39:09.031Z,1.70
2023-04-05T18:44:14.999Z,2.63
2023-04-05T18:49:16.760Z,2.80
2023-04-05T18:54:18.620Z,2.87
2023-04-05T18:59:22.169Z,2.87
2023-04-05T19:04:24.163Z,3.77
2023-04-05T19:09:26.134Z,2.67
2023-04-05T19:14:29.283Z,2.33
2023-04-05T19:19:31.520Z,2.03
2023-04-05T19:24:33.663Z,2.13
2023-04-05T19:29:37.302Z,1.63
2023-04-05T19:34:39.183Z,2.03
2023-04-05T19:39:40.970Z,2.03
2023-04-05T19:44:50.421Z,2.27
2023-04-05T19:49:53.593Z,2.23
2023-04-05T19:54:55.367Z,1.90
2023-04-05T20:00:01.533Z,2.57
2023-04-05T20:05:13.729Z,1.60
2023-04-05T20:10:15.724Z,1.87
2023-04-05T20:15:34.453Z,2.07
2023-04-05T20:20:36.891Z,1.80
2023-04-05T20:25:41.976Z,2.23
2023-04-05T20:30:45.530Z,2.33
2023-04-05T20:35:47.449Z,2.03
2023-04-05T20:40:49.974Z,2.60
2023-04-05T20:45:53.495Z,2.40
2023-04-05T20:50:55.384Z,1.97
2023-04-05T20:55:57.583Z,1.83
2023-04-05T21:01:01.331Z,2.50
2023-04-05T21:06:03.975Z,2.37
2023-04-05T21:11:07.013Z,2.70
2023-04-05T21:16:10.669Z,2.27
2023-04-05T21:21:12.775Z,2.30
2023-04-05T21:26:15.023Z,2.60
2023-04-05T21:31:18.703Z,2.10
2023-04-05T21:36:20.833Z,2.70
2023-04-05T21:41:22.992Z,1.97
2023-04-05T21:46:26.763Z,2.20
2023-04-05T21:51:28.750Z,2.10
2023-04-05T21:56:30.854Z,1.97
2023-04-05T22:01:34.674Z,2.13
2023-04-05T22:06:36.838Z,2.00
2023-04-05T22:11:39.071Z,1.70
2023-04-05T22:16:42.852Z,1.93
2023-04-05T22:21:45.080Z,1.77
2023-04-05T22:26:46.918Z,1.40
2023-04-05T22:31:50.979Z,2.10
2023-04-05T22:36:53.143Z,1.90
2023-04-05T22:41:55.768Z,1.90
2023-04-05T22:46:59.623Z,1.80
2023-04-05T22:52:01.872Z,2.30
2023-04-05T22:57:04.110Z,2.30
2023-04-05T23:02:07.966Z,2.37
2023-04-05T23:07:09.847Z,2.20
2023-04-05T23:12:11.953Z,2.87
2023-04-05T23:17:15.646Z,2.13
2023-04-05T23:22:17.644Z,2.70
2023-04-05T23:27:19.771Z,2.13
2023-04-05T23:32:23.241Z,2.17
2023-04-05T23:37:25.644Z,2.30
2023-04-05T23:42:27.683Z,2.57
2023-04-05T23:47:30.915Z,2.37
2023-04-05T23:52:33.798Z,2.40
2023-04-05T23:57:35.910Z,2.27
